Time;durP1;ratioP1;P1;durP2;ratioP2;P2;SDS_P1;SDS_P2;PMS_P1;PMS_P2;Temp;Humidity;BMP_temperature;BMP_pressure;BME280_temperature;BME280_humidity;BME280_pressure;Samples;Min_cycle;Max_cycle;Signal;HPM_P1;HPM_P2
2021/11/06 00:00:44;;;;;;;6.70;5.18;;;;;;;;;;5034873;28;20152;-60
2021/11/06 00:03:10;;;;;;;9.68;5.75;;;;;;;;;;5035308;28;20377;-60
2021/11/06 00:05:36;;;;;;;5.88;5.20;;;;;;;;;;5033373;28;20354;-61
2021/11/06 00:08:03;;;;;;;6.30;5.47;;;;;;;;;;5035320;28;20036;-59
2021/11/06 00:10:28;;;;;;;5.38;4.68;;;;;;;;;;5032152;28;20034;-60
2021/11/06 00:12:54;;;;;;;8.60;4.85;;;;;;;;;;5037384;28;20104;-60
2021/11/06 00:15:20;;;;;;;7.97;5.28;;;;;;;;;;5035636;28;20087;-60
2021/11/06 00:17:45;;;;;;;6.43;4.85;;;;;;;;;;5036750;28;20033;-60
2021/11/06 00:20:13;;;;;;;6.50;5.07;;;;;;;;;;5031997;28;20029;-59
2021/11/06 00:22:39;;;;;;;8.48;6.13;;;;;;;;;;5037351;28;20037;-59
2021/11/06 00:25:05;;;;;;;6.13;5.00;;;;;;;;;;5039696;28;20032;-59
2021/11/06 00:27:31;;;;;;;6.47;5.40;;;;;;;;;;5038504;28;20110;-59
2021/11/06 00:29:56;;;;;;;6.40;3.95;;;;;;;;;;5037085;28;20394;-59
2021/11/06 00:32:22;;;;;;;10.85;6.70;;;;;;;;;;5037989;28;20048;-59
2021/11/06 00:34:47;;;;;;;7.80;6.10;;;;;;;;;;5037755;28;20047;-59
2021/11/06 00:37:13;;;;;;;6.68;5.05;;;;;;;;;;5037787;28;20418;-59
2021/11/06 00:39:38;;;;;;;9.45;5.80;;;;;;;;;;5038441;28;20061;-59
2021/11/06 00:42:04;;;;;;;6.97;6.25;;;;;;;;;;5040993;28;20033;-59
2021/11/06 00:44:30;;;;;;;11.13;5.93;;;;;;;;;;5038860;28;20451;-59
2021/11/06 00:46:56;;;;;;;7.88;6.63;;;;;;;;;;5036708;28;20040;-59
2021/11/06 00:49:21;;;;;;;8.45;7.57;;;;;;;;;;5037945;28;20037;-60
2021/11/06 00:51:47;;;;;;;7.70;6.00;;;;;;;;;;5039240;28;20482;-60
2021/11/06 00:54:12;;;;;;;8.13;5.30;;;;;;;;;;5036355;28;20052;-60
2021/11/06 00:56:38;;;;;;;9.55;6.60;;;;;;;;;;5036835;28;20076;-60
2021/11/06 00:59:03;;;;;;;5.95;4.05;;;;;;;;;;5037751;28;20121;-60
2021/11/06 01:01:29;;;;;;;5.57;4.65;;;;;;;;;;5035558;28;20078;-60
2021/11/06 01:03:54;;;;;;;5.95;5.45;;;;;;;;;;5035177;28;20029;-59
2021/11/06 01:06:19;;;;;;;7.88;5.45;;;;;;;;;;5036776;28;20037;-59
2021/11/06 01:08:45;;;;;;;6.13;4.97;;;;;;;;;;5037471;28;20035;-60
2021/11/06 01:11:11;;;;;;;7.28;5.95;;;;;;;;;;5038004;28;20132;-60
2021/11/06 01:13:37;;;;;;;6.38;5.05;;;;;;;;;;5034209;28;20117;-60
2021/11/06 01:16:02;;;;;;;5.38;4.38;;;;;;;;;;5036625;28;20033;-59
2021/11/06 01:18:28;;;;;;;7.18;5.65;;;;;;;;;;5037542;28;20063;-60
2021/11/06 01:20:53;;;;;;;5.63;4.93;;;;;;;;;;5037037;28;20108;-60
2021/11/06 01:23:19;;;;;;;6.35;5.20;;;;;;;;;;5037642;28;20034;-60
2021/11/06 01:25:44;;;;;;;8.50;5.25;;;;;;;;;;5035095;28;20036;-59
2021/11/06 01:28:10;;;;;;;5.82;4.47;;;;;;;;;;5035314;28;20120;-60
2021/11/06 01:30:35;;;;;;;6.22;5.40;;;;;;;;;;5034219;28;20072;-60
2021/11/06 01:33:01;;;;;;;8.00;5.50;;;;;;;;;;5036230;28;20434;-60
2021/11/06 01:35:27;;;;;;;7.50;4.97;;;;;;;;;;5038388;28;20029;-60
2021/11/06 01:37:52;;;;;;;5.50;4.95;;;;;;;;;;5035528;28;20033;-60
2021/11/06 01:40:20;;;;;;;6.38;5.75;;;;;;;;;;5035745;28;20036;-60
2021/11/06 01:42:46;;;;;;;8.32;5.05;;;;;;;;;;5037908;28;20063;-60
2021/11/06 01:45:14;;;;;;;5.63;4.90;;;;;;;;;;5034842;28;20077;-60
2021/11/06 01:47:40;;;;;;;5.68;5.07;;;;;;;;;;5036459;28;20055;-60
2021/11/06 01:50:06;;;;;;;8.18;5.22;;;;;;;;;;5033920;28;20443;-60
2021/11/06 01:52:32;;;;;;;6.32;4.90;;;;;;;;;;5033967;28;20037;-60
2021/11/06 01:54:57;;;;;;;12.10;6.13;;;;;;;;;;5038766;28;20354;-60
2021/11/06 01:57:23;;;;;;;9.07;6.63;;;;;;;;;;5033390;28;20041;-60
2021/11/06 01:59:48;;;;;;;6.65;5.93;;;;;;;;;;5037081;28;20037;-60
2021/11/06 02:02:15;;;;;;;5.25;4.45;;;;;;;;;;5039246;28;20052;-60
2021/11/06 02:04:41;;;;;;;5.60;4.78;;;;;;;;;;5035332;28;20041;-61
2021/11/06 02:07:06;;;;;;;6.15;5.15;;;;;;;;;;5033895;28;20118;-60
2021/11/06 02:09:32;;;;;;;8.55;4.85;;;;;;;;;;5037294;28;20025;-60
2021/11/06 02:11:58;;;;;;;6.70;4.82;;;;;;;;;;5037570;28;20032;-60
2021/11/06 02:14:24;;;;;;;5.95;4.78;;;;;;;;;;5035982;28;20062;-60
2021/11/06 02:16:51;;;;;;;8.55;4.57;;;;;;;;;;5033821;28;20116;-60
2021/11/06 02:19:18;;;;;;;6.00;4.68;;;;;;;;;;5033856;28;20037;-58
2021/11/06 02:21:45;;;;;;;6.53;5.00;;;;;;;;;;5036620;28;20118;-60
2021/11/06 02:24:10;;;;;;;5.38;4.65;;;;;;;;;;5034765;28;20438;-60
2021/11/06 02:26:35;;;;;;;7.00;5.57;;;;;;;;;;5036703;28;20025;-60
2021/11/06 02:29:03;;;;;;;4.45;4.03;;;;;;;;;;5037912;28;20162;-60
2021/11/06 02:31:29;;;;;;;6.93;4.70;;;;;;;;;;5033202;28;20048;-60
2021/11/06 02:33:55;;;;;;;5.90;4.63;;;;;;;;;;5035118;28;20463;-60
2021/11/06 02:36:21;;;;;;;5.03;4.53;;;;;;;;;;5033797;28;20421;-60
2021/11/06 02:38:46;;;;;;;7.32;5.95;;;;;;;;;;5034977;28;20040;-60
2021/11/06 02:41:12;;;;;;;9.38;5.82;;;;;;;;;;5035634;28;20032;-59
2021/11/06 02:43:38;;;;;;;8.32;5.55;;;;;;;;;;5033073;28;20036;-59
2021/11/06 02:46:04;;;;;;;7.15;5.00;;;;;;;;;;5034246;28;20059;-59
2021/11/06 02:48:29;;;;;;;7.15;5.38;;;;;;;;;;5036782;28;20059;-59
2021/11/06 02:50:55;;;;;;;5.95;4.60;;;;;;;;;;5034423;28;20474;-59
2021/11/06 02:53:20;;;;;;;5.47;4.75;;;;;;;;;;5035002;28;20045;-59
2021/11/06 02:55:47;;;;;;;8.38;5.38;;;;;;;;;;5035035;28;20033;-59
2021/11/06 02:58:13;;;;;;;5.30;4.80;;;;;;;;;;5034720;28;20051;-59
2021/11/06 03:00:38;;;;;;;5.43;4.15;;;;;;;;;;5032901;28;20452;-59
2021/11/06 03:03:04;;;;;;;6.90;4.97;;;;;;;;;;5033677;28;20025;-59
2021/11/06 03:05:30;;;;;;;6.63;5.70;;;;;;;;;;5033218;28;20518;-59
2021/11/06 03:07:56;;;;;;;9.52;5.40;;;;;;;;;;5033769;28;20030;-59
2021/11/06 03:10:21;;;;;;;8.35;6.22;;;;;;;;;;5032438;28;20073;-59
2021/11/06 03:12:48;;;;;;;6.25;4.93;;;;;;;;;;5031189;28;20053;-59
2021/11/06 03:15:14;;;;;;;7.25;6.20;;;;;;;;;;5030695;28;20250;-59
2021/11/06 03:17:40;;;;;;;5.85;4.35;;;;;;;;;;5032305;28;20048;-59
2021/11/06 03:20:06;;;;;;;7.45;5.28;;;;;;;;;;5019238;28;20101;-59
2021/11/06 03:22:32;;;;;;;8.07;4.80;;;;;;;;;;5033341;28;20095;-59
2021/11/06 03:24:58;;;;;;;5.15;4.35;;;;;;;;;;5034178;28;20025;-59
2021/11/06 03:27:24;;;;;;;6.70;5.18;;;;;;;;;;5034997;28;20112;-60
2021/11/06 03:29:50;;;;;;;5.32;4.82;;;;;;;;;;5035808;28;20179;-59
2021/11/06 03:32:15;;;;;;;5.57;4.97;;;;;;;;;;5034278;28;20110;-59
2021/11/06 03:34:40;;;;;;;5.65;4.18;;;;;;;;;;5035628;28;20095;-59
2021/11/06 03:37:06;;;;;;;6.20;4.43;;;;;;;;;;5031874;28;20029;-59
2021/11/06 03:39:32;;;;;;;6.82;5.53;;;;;;;;;;5032582;28;20030;-60
2021/11/06 03:41:57;;;;;;;6.45;4.88;;;;;;;;;;5034543;28;20029;-59
2021/11/06 03:44:23;;;;;;;16.73;6.10;;;;;;;;;;5033800;28;20033;-61
2021/11/06 03:46:49;;;;;;;4.53;3.97;;;;;;;;;;5039419;28;20512;-60
2021/11/06 03:49:14;;;;;;;6.55;4.97;;;;;;;;;;5037187;28;20029;-61
2021/11/06 03:51:40;;;;;;;7.85;4.70;;;;;;;;;;5036958;28;20112;-61
2021/11/06 03:54:05;;;;;;;5.80;4.72;;;;;;;;;;5037896;28;20041;-61
2021/11/06 03:56:31;;;;;;;7.63;5.20;;;;;;;;;;5038167;28;20069;-60
2021/11/06 03:58:56;;;;;;;5.65;4.75;;;;;;;;;;5039823;28;20033;-60
2021/11/06 04:01:22;;;;;;;9.48;5.00;;;;;;;;;;5036461;28;20071;-60
2021/11/06 04:03:48;;;;;;;5.53;4.80;;;;;;;;;;5041468;28;20029;-60
2021/11/06 04:06:15;;;;;;;4.95;4.30;;;;;;;;;;5036694;28;20088;-60
2021/11/06 04:08:41;;;;;;;7.93;4.50;;;;;;;;;;5036068;28;20114;-60
2021/11/06 04:11:07;;;;;;;5.65;4.40;;;;;;;;;;5038857;28;20124;-60
2021/11/06 04:13:32;;;;;;;6.07;4.93;;;;;;;;;;5037226;28;20573;-60
2021/11/06 04:15:58;;;;;;;6.85;5.05;;;;;;;;;;5040161;28;20087;-60
2021/11/06 04:18:23;;;;;;;4.97;4.47;;;;;;;;;;5041206;28;20132;-60
2021/11/06 04:20:48;;;;;;;5.57;4.78;;;;;;;;;;5039736;28;20025;-60
2021/11/06 04:23:14;;;;;;;6.28;4.85;;;;;;;;;;5038262;28;20060;-60
2021/11/06 04:25:39;;;;;;;7.55;4.63;;;;;;;;;;5037314;28;20079;-60
2021/11/06 04:28:05;;;;;;;6.32;4.50;;;;;;;;;;5039545;28;20148;-59
2021/11/06 04:30:30;;;;;;;8.30;5.57;;;;;;;;;;5037651;28;20044;-60
2021/11/06 04:32:56;;;;;;;7.10;4.80;;;;;;;;;;5038480;28;20405;-60
2021/11/06 04:35:22;;;;;;;6.65;4.60;;;;;;;;;;5036089;28;20067;-60
2021/11/06 04:37:47;;;;;;;7.47;6.13;;;;;;;;;;5018947;28;20033;-60
2021/11/06 04:40:14;;;;;;;4.47;4.03;;;;;;;;;;5035622;28;20345;-59
2021/11/06 04:42:40;;;;;;;5.30;4.80;;;;;;;;;;5036245;28;20037;-59
2021/11/06 04:45:07;;;;;;;6.68;4.50;;;;;;;;;;5038897;28;20757;-59
2021/11/06 04:47:33;;;;;;;4.55;4.07;;;;;;;;;;5037155;28;20028;-60
2021/11/06 04:49:59;;;;;;;11.02;4.50;;;;;;;;;;5037178;28;20025;-59
2021/11/06 04:52:25;;;;;;;10.07;5.07;;;;;;;;;;5037249;28;20040;-60
2021/11/06 04:54:51;;;;;;;9.52;4.65;;;;;;;;;;5037111;28;20030;-60
2021/11/06 04:57:16;;;;;;;14.55;5.55;;;;;;;;;;5039067;28;20033;-60
2021/11/06 04:59:42;;;;;;;8.13;5.15;;;;;;;;;;5034921;28;20033;-60
2021/11/06 05:02:07;;;;;;;8.27;4.70;;;;;;;;;;5037748;28;20083;-60
2021/11/06 05:04:33;;;;;;;6.10;4.80;;;;;;;;;;5038738;28;20467;-60
2021/11/06 05:06:59;;;;;;;5.50;4.82;;;;;;;;;;5036676;28;20034;-60
2021/11/06 05:09:24;;;;;;;10.15;6.45;;;;;;;;;;5036960;28;20061;-60
2021/11/06 05:11:50;;;;;;;9.23;5.30;;;;;;;;;;5035205;28;20116;-60
2021/11/06 05:14:17;;;;;;;6.20;5.60;;;;;;;;;;5036854;28;20032;-60
2021/11/06 05:16:43;;;;;;;8.45;5.30;;;;;;;;;;5037768;28;20439;-60
2021/11/06 05:19:09;;;;;;;8.32;5.25;;;;;;;;;;5036964;28;20057;-59
2021/11/06 05:21:37;;;;;;;10.20;5.13;;;;;;;;;;5035117;28;20406;-59
2021/11/06 05:24:07;;;;;;;4.82;4.20;;;;;;;;;;5037423;28;20462;-59
2021/11/06 05:26:36;;;;;;;4.75;4.00;;;;;;;;;;5036672;28;20037;-59
2021/11/06 05:29:05;;;;;;;5.15;4.57;;;;;;;;;;5036447;28;20029;-59
2021/11/06 05:31:31;;;;;;;8.75;5.32;;;;;;;;;;5036286;28;20145;-59
2021/11/06 05:33:57;;;;;;;4.95;4.20;;;;;;;;;;5036034;28;20335;-59
2021/11/06 05:36:23;;;;;;;5.22;4.32;;;;;;;;;;5036972;28;20102;-59
2021/11/06 05:38:48;;;;;;;4.97;3.65;;;;;;;;;;5037681;28;20025;-59
2021/11/06 05:41:16;;;;;;;4.32;3.65;;;;;;;;;;5036443;28;20053;-60
2021/11/06 05:43:41;;;;;;;8.00;5.20;;;;;;;;;;5034722;28;20370;-59
2021/11/06 05:46:06;;;;;;;6.35;5.32;;;;;;;;;;5035182;28;20144;-59
2021/11/06 05:48:32;;;;;;;5.97;4.82;;;;;;;;;;5035401;28;20029;-59
2021/11/06 05:50:57;;;;;;;7.70;4.97;;;;;;;;;;5036018;28;20573;-60
2021/11/06 05:53:23;;;;;;;4.90;3.95;;;;;;;;;;5036223;28;20033;-60
2021/11/06 05:55:48;;;;;;;3.97;3.33;;;;;;;;;;5036956;28;20086;-60
2021/11/06 05:58:13;;;;;;;6.10;5.18;;;;;;;;;;5037418;28;20061;-60
2021/11/06 06:00:40;;;;;;;7.00;5.13;;;;;;;;;;5017494;28;20040;-60
2021/11/06 06:03:06;;;;;;;7.90;4.03;;;;;;;;;;5034610;28;20029;-60
2021/11/06 06:05:31;;;;;;;5.97;4.63;;;;;;;;;;5033707;28;20564;-61
2021/11/06 06:07:57;;;;;;;5.90;4.57;;;;;;;;;;5036463;28;20032;-60
2021/11/06 06:10:22;;;;;;;9.93;5.18;;;;;;;;;;5035304;28;20032;-61
2021/11/06 06:12:51;;;;;;;5.38;4.35;;;;;;;;;;5034224;28;20040;-61
2021/11/06 06:15:17;;;;;;;5.70;5.13;;;;;;;;;;5033963;28;20052;-60
2021/11/06 06:17:43;;;;;;;5.57;5.00;;;;;;;;;;5033635;28;20103;-60
2021/11/06 06:20:10;;;;;;;6.07;4.35;;;;;;;;;;5034246;28;20058;-60
2021/11/06 06:22:36;;;;;;;12.75;5.95;;;;;;;;;;5034271;28;20119;-60
2021/11/06 06:25:04;;;;;;;5.38;4.55;;;;;;;;;;5032705;28;20618;-60
2021/11/06 06:27:29;;;;;;;8.57;3.78;;;;;;;;;;5032623;28;20478;-60
2021/11/06 06:29:54;;;;;;;5.80;5.20;;;;;;;;;;5035493;28;20032;-61
2021/11/06 06:32:20;;;;;;;6.18;4.30;;;;;;;;;;5034745;28;20094;-60
2021/11/06 06:34:45;;;;;;;6.07;4.93;;;;;;;;;;5032515;28;20033;-61
2021/11/06 06:37:11;;;;;;;5.18;4.10;;;;;;;;;;5035963;28;20483;-60
2021/11/06 06:39:36;;;;;;;6.30;5.00;;;;;;;;;;5036039;28;20040;-60
2021/11/06 06:42:02;;;;;;;5.10;4.25;;;;;;;;;;5036025;28;20021;-60
2021/11/06 06:44:27;;;;;;;5.57;4.35;;;;;;;;;;5027977;28;20049;-59
2021/11/06 06:46:53;;;;;;;5.30;4.18;;;;;;;;;;5033851;28;20108;-61
2021/11/06 06:49:19;;;;;;;7.25;5.45;;;;;;;;;;5035723;28;20053;-60
2021/11/06 06:51:44;;;;;;;7.97;5.30;;;;;;;;;;5032694;28;20052;-59
2021/11/06 06:54:09;;;;;;;5.82;4.65;;;;;;;;;;5032090;28;20051;-59
2021/11/06 06:56:35;;;;;;;5.32;4.47;;;;;;;;;;5035087;28;20145;-59
2021/11/06 06:59:00;;;;;;;5.28;4.57;;;;;;;;;;5034799;28;20037;-59
2021/11/06 07:01:28;;;;;;;6.78;5.95;;;;;;;;;;5034112;28;20044;-59
2021/11/06 07:03:53;;;;;;;5.63;5.05;;;;;;;;;;5032490;28;20033;-59
2021/11/06 07:06:18;;;;;;;9.13;6.05;;;;;;;;;;5037590;28;20109;-59
2021/11/06 07:08:44;;;;;;;7.05;5.53;;;;;;;;;;5034789;28;20030;-59
2021/11/06 07:11:09;;;;;;;6.97;5.22;;;;;;;;;;5036852;28;20025;-59
2021/11/06 07:13:36;;;;;;;5.05;4.22;;;;;;;;;;5032839;28;20036;-60
2021/11/06 07:16:02;;;;;;;5.78;4.60;;;;;;;;;;5035466;28;20030;-61
2021/11/06 07:18:28;;;;;;;7.15;5.20;;;;;;;;;;5033563;28;20475;-62
2021/11/06 07:20:53;;;;;;;6.10;5.10;;;;;;;;;;5031316;28;20033;-60
2021/11/06 07:23:18;;;;;;;7.18;4.57;;;;;;;;;;5032648;28;20514;-61
2021/11/06 07:25:44;;;;;;;12.15;4.75;;;;;;;;;;5033499;28;20025;-60
2021/11/06 07:28:09;;;;;;;6.57;5.65;;;;;;;;;;5037354;28;20512;-60
2021/11/06 07:30:35;;;;;;;6.40;4.50;;;;;;;;;;5037058;28;20041;-60
2021/11/06 07:33:00;;;;;;;5.28;4.78;;;;;;;;;;5038765;28;20057;-60
2021/11/06 07:35:26;;;;;;;4.60;3.63;;;;;;;;;;5040336;28;20240;-61
2021/11/06 07:37:51;;;;;;;7.05;4.93;;;;;;;;;;5038297;28;20036;-60
2021/11/06 07:40:17;;;;;;;6.78;4.95;;;;;;;;;;5039852;28;20135;-61
2021/11/06 07:42:45;;;;;;;5.60;4.63;;;;;;;;;;5038694;28;20048;-59
2021/11/06 07:45:13;;;;;;;4.63;3.90;;;;;;;;;;5035638;28;20036;-60
2021/11/06 07:47:39;;;;;;;6.22;4.32;;;;;;;;;;5037137;28;20059;-60
2021/11/06 07:50:05;;;;;;;6.30;4.97;;;;;;;;;;5039297;28;20029;-60
2021/11/06 07:52:31;;;;;;;8.55;5.53;;;;;;;;;;5036608;28;20033;-60
2021/11/06 07:54:57;;;;;;;7.65;5.00;;;;;;;;;;5037579;28;20408;-59
2021/11/06 07:57:23;;;;;;;4.80;4.20;;;;;;;;;;5039095;28;20039;-59
2021/11/06 07:59:48;;;;;;;6.50;4.68;;;;;;;;;;5035235;28;20125;-59
2021/11/06 08:02:14;;;;;;;4.68;3.78;;;;;;;;;;5033652;28;20037;-59
2021/11/06 08:04:39;;;;;;;5.95;4.55;;;;;;;;;;5035074;28;20029;-59
2021/11/06 08:07:05;;;;;;;6.60;4.60;;;;;;;;;;5033185;28;20052;-59
2021/11/06 08:09:31;;;;;;;8.18;4.72;;;;;;;;;;5038815;28;20029;-58
2021/11/06 08:11:56;;;;;;;6.47;4.40;;;;;;;;;;5039001;28;20128;-59
2021/11/06 08:14:22;;;;;;;5.43;4.28;;;;;;;;;;5033303;28;20037;-59
2021/11/06 08:16:49;;;;;;;5.88;4.95;;;;;;;;;;5039458;28;20120;-60
2021/11/06 08:19:16;;;;;;;3.97;3.58;;;;;;;;;;5036173;28;20033;-60
2021/11/06 08:21:42;;;;;;;4.53;3.95;;;;;;;;;;5038180;28;20037;-59
2021/11/06 08:24:08;;;;;;;6.28;4.30;;;;;;;;;;5031727;28;20880;-60
2021/11/06 08:26:33;;;;;;;5.28;4.45;;;;;;;;;;5034607;28;20030;-60
2021/11/06 08:28:59;;;;;;;5.65;4.82;;;;;;;;;;5035875;28;20033;-60
2021/11/06 08:31:24;;;;;;;6.57;4.32;;;;;;;;;;5033432;28;20037;-59
2021/11/06 08:33:50;;;;;;;6.03;4.10;;;;;;;;;;5033501;28;20082;-60
2021/11/06 08:36:15;;;;;;;5.05;3.85;;;;;;;;;;5036760;28;20407;-61
2021/11/06 08:38:41;;;;;;;7.30;5.10;;;;;;;;;;5033432;28;20119;-59
2021/11/06 08:41:06;;;;;;;5.68;4.78;;;;;;;;;;5035697;28;20102;-59
2021/11/06 08:43:33;;;;;;;6.47;5.28;;;;;;;;;;5036717;28;20193;-61
2021/11/06 08:45:59;;;;;;;4.90;3.85;;;;;;;;;;5038848;28;20111;-60
2021/11/06 08:48:24;;;;;;;5.55;3.72;;;;;;;;;;5038739;28;20361;-60
2021/11/06 08:50:50;;;;;;;5.35;4.63;;;;;;;;;;5036611;28;20037;-61
2021/11/06 08:53:16;;;;;;;6.70;4.63;;;;;;;;;;5036315;28;20073;-61
2021/11/06 08:55:41;;;;;;;3.60;3.08;;;;;;;;;;5034201;28;20067;-61
2021/11/06 08:58:07;;;;;;;4.72;3.97;;;;;;;;;;5032239;28;20044;-61
2021/11/06 09:00:39;;;;;;;5.22;4.38;;;;;;;;;;5034329;28;20045;-60
2021/11/06 09:03:24;;;;;;;4.88;3.70;;;;;;;;;;5036611;28;20037;-60
2021/11/06 09:05:52;;;;;;;4.10;3.53;;;;;;;;;;5033742;28;20036;-60
2021/11/06 09:08:20;;;;;;;5.95;4.18;;;;;;;;;;5036049;28;20036;-60
2021/11/06 09:10:47;;;;;;;4.65;3.95;;;;;;;;;;5024988;28;20128;-60
2021/11/06 09:13:13;;;;;;;5.40;4.82;;;;;;;;;;5034239;28;20032;-60
2021/11/06 09:15:38;;;;;;;5.68;5.03;;;;;;;;;;5035021;28;20680;-60
2021/11/06 09:18:03;;;;;;;6.65;5.35;;;;;;;;;;5035773;28;20028;-61
2021/11/06 09:20:29;;;;;;;6.57;5.88;;;;;;;;;;5032721;28;20087;-60
2021/11/06 09:22:55;;;;;;;7.63;4.38;;;;;;;;;;5031746;28;20514;-60
2021/11/06 09:25:21;;;;;;;6.55;4.57;;;;;;;;;;5032046;28;20042;-60
2021/11/06 09:27:46;;;;;;;4.97;4.47;;;;;;;;;;5031485;28;20485;-60
2021/11/06 09:30:13;;;;;;;6.28;4.63;;;;;;;;;;5029493;28;20029;-60
2021/11/06 09:32:39;;;;;;;5.20;4.32;;;;;;;;;;5030776;28;20080;-60
2021/11/06 09:35:05;;;;;;;6.90;5.47;;;;;;;;;;5032355;28;20517;-60
2021/11/06 09:37:30;;;;;;;5.03;4.20;;;;;;;;;;5034163;28;20113;-60
2021/11/06 09:39:56;;;;;;;5.88;4.68;;;;;;;;;;5031291;28;20482;-60
2021/11/06 09:42:22;;;;;;;5.20;4.47;;;;;;;;;;5034277;28;20542;-60
2021/11/06 09:44:52;;;;;;;7.45;4.22;;;;;;;;;;5034641;28;20037;-60
2021/11/06 09:47:20;;;;;;;5.43;4.68;;;;;;;;;;5033016;28;20107;-60
2021/11/06 09:49:46;;;;;;;4.93;4.40;;;;;;;;;;5031653;28;20052;-60
2021/11/06 09:52:13;;;;;;;6.43;5.00;;;;;;;;;;5034141;28;20561;-60
2021/11/06 09:54:40;;;;;;;4.68;4.25;;;;;;;;;;5031649;28;20437;-60
2021/11/06 09:57:06;;;;;;;4.78;4.13;;;;;;;;;;5029374;28;20029;-60
2021/11/06 09:59:32;;;;;;;6.55;4.85;;;;;;;;;;5029571;28;20479;-60
2021/11/06 10:01:59;;;;;;;5.60;5.05;;;;;;;;;;5039232;28;20117;-60
2021/11/06 10:04:25;;;;;;;6.40;5.05;;;;;;;;;;5034223;28;20029;-60
2021/11/06 10:06:50;;;;;;;6.20;5.10;;;;;;;;;;5031195;28;20043;-60
2021/11/06 10:09:17;;;;;;;6.45;5.32;;;;;;;;;;5033845;28;20032;-60
2021/11/06 10:11:55;;;;;;;7.22;4.90;;;;;;;;;;5030529;28;20044;-60
2021/11/06 10:14:26;;;;;;;7.13;5.03;;;;;;;;;;5038029;28;20037;-60
2021/11/06 10:16:57;;;;;;;5.93;4.80;;;;;;;;;;5032187;28;20534;-60
2021/11/06 10:19:29;;;;;;;6.00;5.03;;;;;;;;;;5030122;28;20043;-60
2021/11/06 10:22:04;;;;;;;6.75;5.65;;;;;;;;;;5036228;28;20091;-60
2021/11/06 10:24:52;;;;;;;5.82;5.00;;;;;;;;;;5032678;28;20056;-61
2021/11/06 10:27:23;;;;;;;6.40;4.97;;;;;;;;;;5034212;28;20448;-59
2021/11/06 10:30:01;;;;;;;;;;;;;;;;;;5034149;28;20525;-59
2021/11/06 10:32:26;;;;;;;5.93;4.75;;;;;;;;;;5031536;28;20512;-60
2021/11/06 10:34:53;;;;;;;7.32;5.45;;;;;;;;;;5030290;28;20114;-60
2021/11/06 10:37:19;;;;;;;4.97;4.00;;;;;;;;;;5034115;28;20037;-60
2021/11/06 10:39:59;;;;;;;6.45;4.90;;;;;;;;;;5033597;28;20032;-60
2021/11/06 10:42:27;;;;;;;7.38;6.22;;;;;;;;;;5033568;28;20081;-60
2021/11/06 10:45:11;;;;;;;7.88;5.35;;;;;;;;;;5035468;28;20025;-60
2021/11/06 10:48:03;;;;;;;7.57;5.40;;;;;;;;;;5034439;28;20468;-60
2021/11/06 10:50:54;;;;;;;7.57;6.47;;;;;;;;;;5035849;28;20052;-60
2021/11/06 10:53:55;;;;;;;14.25;7.85;;;;;;;;;;5035419;28;20053;-60
2021/11/06 10:56:28;;;;;;;6.82;6.13;;;;;;;;;;5035129;28;20041;-60
2021/11/06 10:59:03;;;;;;;9.50;7.85;;;;;;;;;;5035883;28;20099;-60
2021/11/06 11:01:34;;;;;;;6.65;5.88;;;;;;;;;;5034343;28;20352;-60
2021/11/06 11:04:11;;;;;;;9.15;6.47;;;;;;;;;;5035726;28;20040;-60
2021/11/06 11:06:43;;;;;;;7.55;5.70;;;;;;;;;;5031564;28;20037;-59
2021/11/06 11:09:13;;;;;;;7.25;6.28;;;;;;;;;;5035349;28;20430;-60
2021/11/06 11:11:39;;;;;;;5.82;4.38;;;;;;;;;;5031410;28;20033;-60
2021/11/06 11:14:32;;;;;;;11.30;6.55;;;;;;;;;;5033456;28;20561;-60
2021/11/06 11:16:59;;;;;;;12.02;6.65;;;;;;;;;;5032940;28;20041;-62
2021/11/06 11:19:56;;;;;;;9.77;6.05;;;;;;;;;;5036203;28;20194;-60
2021/11/06 11:22:31;;;;;;;6.80;5.60;;;;;;;;;;5043479;28;20128;-60
2021/11/06 11:24:57;;;;;;;12.93;7.25;;;;;;;;;;5032532;28;20069;-60
2021/11/06 11:27:24;;;;;;;9.07;6.53;;;;;;;;;;5034903;28;20620;-60
2021/11/06 11:29:49;;;;;;;10.43;7.75;;;;;;;;;;5035842;28;20539;-60
2021/11/06 11:32:16;;;;;;;11.15;6.80;;;;;;;;;;5033221;28;20115;-60
2021/11/06 11:34:46;;;;;;;9.52;7.40;;;;;;;;;;5036341;28;20371;-60
2021/11/06 11:37:12;;;;;;;7.57;6.78;;;;;;;;;;5030545;28;20046;-60
2021/11/06 11:39:38;;;;;;;8.15;6.25;;;;;;;;;;5031488;28;20037;-60
2021/11/06 11:42:40;;;;;;;14.80;7.80;;;;;;;;;;5035230;28;20053;-60
2021/11/06 11:45:18;;;;;;;7.97;6.43;;;;;;;;;;5034251;28;20463;-60
2021/11/06 11:47:54;;;;;;;12.35;8.02;;;;;;;;;;5032934;28;20091;-59
2021/11/06 11:50:30;;;;;;;6.72;5.80;;;;;;;;;;5034281;28;20033;-59
2021/11/06 11:52:58;;;;;;;10.77;7.00;;;;;;;;;;5032877;28;20029;-59
2021/11/06 11:55:41;;;;;;;10.93;8.00;;;;;;;;;;5033539;28;20196;-60
2021/11/06 11:58:20;;;;;;;14.52;9.77;;;;;;;;;;5032578;28;20091;-60
2021/11/06 12:00:46;;;;;;;12.02;8.60;;;;;;;;;;5033753;28;20545;-59
2021/11/06 12:03:24;;;;;;;10.48;7.88;;;;;;;;;;5031530;28;20049;-59
2021/11/06 12:05:50;;;;;;;10.98;8.45;;;;;;;;;;5032637;28;20021;-60
2021/11/06 12:08:15;;;;;;;8.70;7.50;;;;;;;;;;5034578;28;20021;-59
2021/11/06 12:10:45;;;;;;;17.80;7.93;;;;;;;;;;5032793;28;20037;-59
2021/11/06 12:13:35;;;;;;;8.82;7.82;;;;;;;;;;5033691;28;20092;-59
2021/11/06 12:16:12;;;;;;;16.30;8.35;;;;;;;;;;5038763;28;20473;-59
2021/11/06 12:18:37;;;;;;;10.48;6.72;;;;;;;;;;5036499;28;20037;-60
2021/11/06 12:21:16;;;;;;;14.80;8.27;;;;;;;;;;5037514;28;20029;-60
2021/11/06 12:24:00;;;;;;;14.23;8.25;;;;;;;;;;5039494;28;20028;-59
2021/11/06 12:26:33;;;;;;;12.30;7.65;;;;;;;;;;5035360;28;20531;-59
2021/11/06 12:29:07;;;;;;;11.35;8.15;;;;;;;;;;5033933;28;20116;-59
2021/11/06 12:31:34;;;;;;;15.85;7.95;;;;;;;;;;5037648;28;20033;-61
2021/11/06 12:34:01;;;;;;;12.68;9.00;;;;;;;;;;5036483;28;20037;-61
2021/11/06 12:36:30;;;;;;;9.50;8.30;;;;;;;;;;5037130;28;20897;-60
2021/11/06 12:38:57;;;;;;;8.98;7.88;;;;;;;;;;5035968;28;20371;-60
2021/11/06 12:41:36;;;;;;;11.82;8.13;;;;;;;;;;5035591;28;20037;-60
2021/11/06 12:44:06;;;;;;;13.60;8.65;;;;;;;;;;5034741;28;20029;-60
2021/11/06 12:46:34;;;;;;;14.40;7.43;;;;;;;;;;5039211;28;20071;-60
2021/11/06 12:49:04;;;;;;;10.60;7.88;;;;;;;;;;5038176;28;20116;-62
2021/11/06 12:51:32;;;;;;;8.85;7.93;;;;;;;;;;5021690;28;20033;-60
2021/11/06 12:54:01;;;;;;;8.57;7.15;;;;;;;;;;5036135;28;20049;-60
2021/11/06 12:56:41;;;;;;;9.73;7.05;;;;;;;;;;5040345;28;20025;-60
2021/11/06 12:59:10;;;;;;;9.63;6.15;;;;;;;;;;5038423;28;20042;-60
2021/11/06 13:01:42;;;;;;;16.98;8.07;;;;;;;;;;5037031;28;20319;-60
2021/11/06 13:04:16;;;;;;;7.90;6.63;;;;;;;;;;5037040;28;20021;-60
2021/11/06 13:06:43;;;;;;;9.95;7.78;;;;;;;;;;5037646;28;20034;-60
2021/11/06 13:09:29;;;;;;;9.98;8.02;;;;;;;;;;5037967;28;20116;-60
2021/11/06 13:12:11;;;;;;;7.55;5.55;;;;;;;;;;5035329;28;20124;-60
2021/11/06 13:14:45;;;;;;;8.43;6.85;;;;;;;;;;5020727;28;20060;-59
2021/11/06 13:17:24;;;;;;;10.38;8.52;;;;;;;;;;5038101;28;20149;-59
2021/11/06 13:19:58;;;;;;;8.10;6.63;;;;;;;;;;5039112;28;20043;-60
2021/11/06 13:22:24;;;;;;;15.57;9.40;;;;;;;;;;5034600;28;20041;-60
2021/11/06 13:24:57;;;;;;;8.65;7.75;;;;;;;;;;5034916;28;20475;-60
2021/11/06 13:27:54;;;;;;;15.60;8.15;;;;;;;;;;5037426;28;20039;-59
2021/11/06 13:30:20;;;;;;;17.98;8.20;;;;;;;;;;5035897;28;20067;-59
2021/11/06 13:33:00;;;;;;;9.25;7.28;;;;;;;;;;5036830;28;20067;-59
2021/11/06 13:35:32;;;;;;;13.20;10.27;;;;;;;;;;5037296;28;20179;-59
2021/11/06 13:38:15;;;;;;;11.40;8.50;;;;;;;;;;5036597;28;20087;-58
2021/11/06 13:40:45;;;;;;;11.10;8.05;;;;;;;;;;5035227;28;20033;-61
2021/11/06 13:43:30;;;;;;;8.75;7.85;;;;;;;;;;5028492;28;20116;-59
2021/11/06 13:46:11;;;;;;;8.32;7.00;;;;;;;;;;5033657;28;20067;-59
2021/11/06 13:48:41;;;;;;;8.30;7.20;;;;;;;;;;5034972;28;20128;-58
2021/11/06 13:51:10;;;;;;;8.70;7.43;;;;;;;;;;5032730;28;20029;-59
2021/11/06 13:53:36;;;;;;;7.88;6.95;;;;;;;;;;5032991;28;20483;-59
2021/11/06 13:56:01;;;;;;;7.28;5.95;;;;;;;;;;5033418;28;20041;-59
2021/11/06 13:58:28;;;;;;;12.85;7.80;;;;;;;;;;5032480;28;20029;-60
2021/11/06 14:00:54;;;;;;;7.55;5.82;;;;;;;;;;5031929;28;20082;-59
2021/11/06 14:03:24;;;;;;;7.97;7.18;;;;;;;;;;5031351;28;20118;-59
2021/11/06 14:05:50;;;;;;;8.80;6.80;;;;;;;;;;5032881;28;20130;-59
2021/11/06 14:08:16;;;;;;;8.98;7.30;;;;;;;;;;5034346;28;20032;-59
2021/11/06 14:10:43;;;;;;;7.85;6.70;;;;;;;;;;5032349;28;20088;-59
2021/11/06 14:13:14;;;;;;;10.30;8.82;;;;;;;;;;5032447;28;20052;-60
2021/11/06 14:15:46;;;;;;;;;;;;;;;;;;5035897;28;20041;-60
2021/11/06 14:18:31;;;;;;;12.70;8.60;;;;;;;;;;5032975;28;19920;-61
2021/11/06 14:21:03;;;;;;;12.40;7.22;;;;;;;;;;5034376;28;20211;-60
2021/11/06 14:23:30;;;;;;;17.08;8.80;;;;;;;;;;5035048;28;20033;-59
2021/11/06 14:26:10;;;;;;;10.68;8.18;;;;;;;;;;5033424;28;20083;-58
2021/11/06 14:28:52;;;;;;;8.13;5.80;;;;;;;;;;5035402;28;20033;-59
2021/11/06 14:31:41;;;;;;;9.55;7.13;;;;;;;;;;5031619;28;20549;-59
2021/11/06 14:34:28;;;;;;;13.40;8.75;;;;;;;;;;5034517;28;20421;-59
2021/11/06 14:37:02;;;;;;;8.32;7.05;;;;;;;;;;5036900;28;20412;-59
2021/11/06 14:39:30;;;;;;;8.85;6.75;;;;;;;;;;5036235;28;20091;-60
2021/11/06 14:41:57;;;;;;;7.72;6.30;;;;;;;;;;5034267;28;20112;-60
2021/11/06 14:44:30;;;;;;;5.70;5.15;;;;;;;;;;5033111;28;20033;-60
2021/11/06 14:47:01;;;;;;;10.40;8.07;;;;;;;;;;5033828;28;20389;-60